sensor_id;sensor_type;location;lat;lon;timestamp;temperature;humidity
7216;DHT22;3649;48.798;9.798;2022-09-09T00:04:13;19.20;99.90
7216;DHT22;3649;48.798;9.798;2022-09-09T00:09:19;19.10;99.90
7216;DHT22;3649;48.798;9.798;2022-09-09T00:12:37;19.10;99.90
7216;DHT22;3649;48.798;9.798;2022-09-09T00:15:18;19.10;99.90
7216;DHT22;3649;48.798;9.798;2022-09-09T00:18:24;19.00;99.90
7216;DHT22;3649;48.798;9.798;2022-09-09T00:20:57;19.10;99.90
7216;DHT22;3649;48.798;9.798;2022-09-09T00:23:28;19.10;99.90
7216;DHT22;3649;48.798;9.798;2022-09-09T00:28:45;19.10;99.90
7216;DHT22;3649;48.798;9.798;2022-09-09T00:31:25;19.10;99.90
7216;DHT22;3649;48.798;9.798;2022-09-09T00:33:54;19.20;99.90
7216;DHT22;3649;48.798;9.798;2022-09-09T00:36:23;19.10;99.90
7216;DHT22;3649;48.798;9.798;2022-09-09T00:38:58;19.20;99.90
7216;DHT22;3649;48.798;9.798;2022-09-09T00:41:51;19.20;99.90
7216;DHT22;3649;48.798;9.798;2022-09-09T00:44:37;19.20;99.90
7216;DHT22;3649;48.798;9.798;2022-09-09T00:52:16;19.10;99.90
7216;DHT22;3649;48.798;9.798;2022-09-09T00:54:55;19.10;99.90
7216;DHT22;3649;48.798;9.798;2022-09-09T00:57:32;19.00;99.90
7216;DHT22;3649;48.798;9.798;2022-09-09T01:07:48;19.00;99.90
7216;DHT22;3649;48.798;9.798;2022-09-09T01:10:29;19.00;99.90
7216;DHT22;3649;48.798;9.798;2022-09-09T01:12:58;18.90;99.90
7216;DHT22;3649;48.798;9.798;2022-09-09T01:15:30;18.80;99.90
7216;DHT22;3649;48.798;9.798;2022-09-09T01:18:10;18.80;99.90
7216;DHT22;3649;48.798;9.798;2022-09-09T01:26:38;18.80;99.90
7216;DHT22;3649;48.798;9.798;2022-09-09T01:29:11;18.80;99.90
7216;DHT22;3649;48.798;9.798;2022-09-09T01:34:31;18.90;99.90
7216;DHT22;3649;48.798;9.798;2022-09-09T01:37:09;18.80;99.90
7216;DHT22;3649;48.798;9.798;2022-09-09T01:39:39;18.80;99.90
7216;DHT22;3649;48.798;9.798;2022-09-09T01:42:09;18.80;99.90
7216;DHT22;3649;48.798;9.798;2022-09-09T01:44:38;18.90;99.90
7216;DHT22;3649;48.798;9.798;2022-09-09T01:47:05;18.90;99.90
7216;DHT22;3649;48.798;9.798;2022-09-09T01:49:32;19.00;99.90
7216;DHT22;3649;48.798;9.798;2022-09-09T01:51:59;19.00;99.90
7216;DHT22;3649;48.798;9.798;2022-09-09T01:54:29;19.00;99.90
7216;DHT22;3649;48.798;9.798;2022-09-09T01:57:07;19.00;99.90
7216;DHT22;3649;48.798;9.798;2022-09-09T02:02:32;19.10;99.90
7216;DHT22;3649;48.798;9.798;2022-09-09T02:05:36;19.10;99.90
7216;DHT22;3649;48.798;9.798;2022-09-09T02:08:09;19.00;99.90
7216;DHT22;3649;48.798;9.798;2022-09-09T02:13:22;19.00;99.90
7216;DHT22;3649;48.798;9.798;2022-09-09T02:16:03;19.00;99.90
7216;DHT22;3649;48.798;9.798;2022-09-09T02:18:46;19.00;99.90
7216;DHT22;3649;48.798;9.798;2022-09-09T02:21:14;19.00;99.90
7216;DHT22;3649;48.798;9.798;2022-09-09T02:23:43;18.90;99.90
7216;DHT22;3649;48.798;9.798;2022-09-09T02:26:14;19.00;99.90
7216;DHT22;3649;48.798;9.798;2022-09-09T02:28:48;19.00;99.90
7216;DHT22;3649;48.798;9.798;2022-09-09T02:31:22;19.00;99.90
7216;DHT22;3649;48.798;9.798;2022-09-09T02:33:56;19.10;99.90
7216;DHT22;3649;48.798;9.798;2022-09-09T02:36:26;19.10;99.90
7216;DHT22;3649;48.798;9.798;2022-09-09T02:38:54;19.10;99.90
7216;DHT22;3649;48.798;9.798;2022-09-09T02:41:26;19.10;99.90
7216;DHT22;3649;48.798;9.798;2022-09-09T02:43:54;19.00;99.90
7216;DHT22;3649;48.798;9.798;2022-09-09T02:49:19;19.00;99.90
7216;DHT22;3649;48.798;9.798;2022-09-09T02:54:33;19.00;99.90
7216;DHT22;3649;48.798;9.798;2022-09-09T02:57:08;19.00;99.90
7216;DHT22;3649;48.798;9.798;2022-09-09T02:59:38;19.00;99.90
7216;DHT22;3649;48.798;9.798;2022-09-09T03:02:05;19.00;99.90
7216;DHT22;3649;48.798;9.798;2022-09-09T03:04:32;19.00;99.90
7216;DHT22;3649;48.798;9.798;2022-09-09T03:06:59;18.90;99.90
7216;DHT22;3649;48.798;9.798;2022-09-09T03:09:26;18.90;99.90
7216;DHT22;3649;48.798;9.798;2022-09-09T03:11:53;19.00;99.90
7216;DHT22;3649;48.798;9.798;2022-09-09T03:14:22;18.90;99.90
7216;DHT22;3649;48.798;9.798;2022-09-09T03:16:51;18.90;99.90
7216;DHT22;3649;48.798;9.798;2022-09-09T03:19:19;18.90;99.90
7216;DHT22;3649;48.798;9.798;2022-09-09T03:21:47;18.90;99.90
7216;DHT22;3649;48.798;9.798;2022-09-09T03:24:14;18.90;99.90
7216;DHT22;3649;48.798;9.798;2022-09-09T03:26:42;18.90;99.90
7216;DHT22;3649;48.798;9.798;2022-09-09T03:29:14;18.90;99.90
7216;DHT22;3649;48.798;9.798;2022-09-09T03:31:41;18.80;99.90
7216;DHT22;3649;48.798;9.798;2022-09-09T03:34:09;18.80;99.90
7216;DHT22;3649;48.798;9.798;2022-09-09T03:36:37;18.80;99.90
7216;DHT22;3649;48.798;9.798;2022-09-09T03:39:04;18.80;99.90
7216;DHT22;3649;48.798;9.798;2022-09-09T03:41:31;18.80;99.90
7216;DHT22;3649;48.798;9.798;2022-09-09T03:43:58;18.90;99.90
7216;DHT22;3649;48.798;9.798;2022-09-09T03:46:25;18.90;99.90
7216;DHT22;3649;48.798;9.798;2022-09-09T03:48:52;18.80;99.90
7216;DHT22;3649;48.798;9.798;2022-09-09T03:51:19;18.80;99.90
7216;DHT22;3649;48.798;9.798;2022-09-09T03:53:46;18.70;99.90
7216;DHT22;3649;48.798;9.798;2022-09-09T03:56:13;18.70;99.90
7216;DHT22;3649;48.798;9.798;2022-09-09T03:58:40;18.60;99.90
7216;DHT22;3649;48.798;9.798;2022-09-09T04:01:10;18.60;99.90
7216;DHT22;3649;48.798;9.798;2022-09-09T04:03:37;18.60;99.90
7216;DHT22;3649;48.798;9.798;2022-09-09T04:06:05;18.80;99.90
7216;DHT22;3649;48.798;9.798;2022-09-09T04:08:34;18.80;99.90
7216;DHT22;3649;48.798;9.798;2022-09-09T04:11:03;18.80;99.90
7216;DHT22;3649;48.798;9.798;2022-09-09T04:13:34;18.80;99.90
7216;DHT22;3649;48.798;9.798;2022-09-09T04:16:02;18.80;99.90
7216;DHT22;3649;48.798;9.798;2022-09-09T04:18:30;18.70;99.90
7216;DHT22;3649;48.798;9.798;2022-09-09T04:20:58;18.70;99.90
7216;DHT22;3649;48.798;9.798;2022-09-09T04:23:26;18.70;99.90
7216;DHT22;3649;48.798;9.798;2022-09-09T04:25:54;18.70;99.90
7216;DHT22;3649;48.798;9.798;2022-09-09T04:28:23;18.70;99.90
7216;DHT22;3649;48.798;9.798;2022-09-09T04:30:51;18.70;99.90
7216;DHT22;3649;48.798;9.798;2022-09-09T04:33:19;18.70;99.90
7216;DHT22;3649;48.798;9.798;2022-09-09T04:35:47;18.70;99.90
7216;DHT22;3649;48.798;9.798;2022-09-09T04:38:16;18.80;99.90
7216;DHT22;3649;48.798;9.798;2022-09-09T04:40:47;18.70;99.90
7216;DHT22;3649;48.798;9.798;2022-09-09T04:43:14;18.70;99.90
7216;DHT22;3649;48.798;9.798;2022-09-09T04:45:42;18.70;99.90
7216;DHT22;3649;48.798;9.798;2022-09-09T04:48:09;18.70;99.90
7216;DHT22;3649;48.798;9.798;2022-09-09T04:50:36;18.70;99.90
7216;DHT22;3649;48.798;9.798;2022-09-09T04:53:04;18.70;99.90
7216;DHT22;3649;48.798;9.798;2022-09-09T04:55:32;18.70;99.90
7216;DHT22;3649;48.798;9.798;2022-09-09T04:58:04;18.70;99.90
7216;DHT22;3649;48.798;9.798;2022-09-09T05:00:33;18.60;99.90
7216;DHT22;3649;48.798;9.798;2022-09-09T05:03:03;18.60;99.90
7216;DHT22;3649;48.798;9.798;2022-09-09T05:05:32;18.70;99.90
7216;DHT22;3649;48.798;9.798;2022-09-09T05:08:05;18.70;99.90
7216;DHT22;3649;48.798;9.798;2022-09-09T05:10:33;18.70;99.90
7216;DHT22;3649;48.798;9.798;2022-09-09T05:13:00;18.60;99.90
7216;DHT22;3649;48.798;9.798;2022-09-09T05:15:27;18.60;99.90
7216;DHT22;3649;48.798;9.798;2022-09-09T05:17:59;18.50;99.90
7216;DHT22;3649;48.798;9.798;2022-09-09T05:20:27;18.50;99.90
7216;DHT22;3649;48.798;9.798;2022-09-09T05:22:56;18.60;99.90
7216;DHT22;3649;48.798;9.798;2022-09-09T05:25:23;18.60;99.90
7216;DHT22;3649;48.798;9.798;2022-09-09T05:27:52;18.50;99.90
7216;DHT22;3649;48.798;9.798;2022-09-09T05:30:21;18.50;99.90
7216;DHT22;3649;48.798;9.798;2022-09-09T05:32:49;18.50;99.90
7216;DHT22;3649;48.798;9.798;2022-09-09T05:35:16;18.40;99.90
7216;DHT22;3649;48.798;9.798;2022-09-09T05:37:45;18.40;99.90
7216;DHT22;3649;48.798;9.798;2022-09-09T05:40:12;18.40;99.90
7216;DHT22;3649;48.798;9.798;2022-09-09T05:42:40;18.50;99.90
7216;DHT22;3649;48.798;9.798;2022-09-09T05:45:08;18.60;99.90
7216;DHT22;3649;48.798;9.798;2022-09-09T05:47:35;18.60;99.90
7216;DHT22;3649;48.798;9.798;2022-09-09T05:50:04;18.60;99.90
7216;DHT22;3649;48.798;9.798;2022-09-09T05:52:31;18.70;99.90
7216;DHT22;3649;48.798;9.798;2022-09-09T05:54:59;18.70;99.90
7216;DHT22;3649;48.798;9.798;2022-09-09T05:57:26;18.80;99.90
7216;DHT22;3649;48.798;9.798;2022-09-09T05:59:52;18.80;99.90
7216;DHT22;3649;48.798;9.798;2022-09-09T06:02:20;18.90;99.90
7216;DHT22;3649;48.798;9.798;2022-09-09T06:04:47;18.90;99.90
7216;DHT22;3649;48.798;9.798;2022-09-09T06:07:14;19.00;99.90
7216;DHT22;3649;48.798;9.798;2022-09-09T06:09:41;19.10;99.90
7216;DHT22;3649;48.798;9.798;2022-09-09T06:12:08;19.10;99.90
7216;DHT22;3649;48.798;9.798;2022-09-09T06:14:35;19.20;99.90
7216;DHT22;3649;48.798;9.798;2022-09-09T06:17:03;19.20;99.90
7216;DHT22;3649;48.798;9.798;2022-09-09T06:19:30;19.20;99.90
7216;DHT22;3649;48.798;9.798;2022-09-09T06:21:57;19.30;99.90
7216;DHT22;3649;48.798;9.798;2022-09-09T06:24:25;19.30;99.90
7216;DHT22;3649;48.798;9.798;2022-09-09T06:26:51;19.30;99.90
7216;DHT22;3649;48.798;9.798;2022-09-09T06:29:18;19.40;99.90
7216;DHT22;3649;48.798;9.798;2022-09-09T06:31:45;19.50;99.90
7216;DHT22;3649;48.798;9.798;2022-09-09T06:34:12;19.50;99.90
7216;DHT22;3649;48.798;9.798;2022-09-09T06:36:39;19.50;99.90
7216;DHT22;3649;48.798;9.798;2022-09-09T06:39:07;19.60;99.90
7216;DHT22;3649;48.798;9.798;2022-09-09T06:41:41;19.60;99.90
7216;DHT22;3649;48.798;9.798;2022-09-09T06:44:09;19.70;99.90
7216;DHT22;3649;48.798;9.798;2022-09-09T06:46:38;19.70;99.90
7216;DHT22;3649;48.798;9.798;2022-09-09T06:49:07;19.70;99.90
7216;DHT22;3649;48.798;9.798;2022-09-09T06:51:36;19.70;99.90
7216;DHT22;3649;48.798;9.798;2022-09-09T06:54:10;19.70;99.90
7216;DHT22;3649;48.798;9.798;2022-09-09T06:56:39;19.80;99.90
7216;DHT22;3649;48.798;9.798;2022-09-09T06:59:10;19.80;99.90
7216;DHT22;3649;48.798;9.798;2022-09-09T07:01:40;19.80;99.90
7216;DHT22;3649;48.798;9.798;2022-09-09T07:04:08;19.90;99.90
7216;DHT22;3649;48.798;9.798;2022-09-09T07:06:41;20.00;99.90
7216;DHT22;3649;48.798;9.798;2022-09-09T07:09:12;20.00;99.90
7216;DHT22;3649;48.798;9.798;2022-09-09T07:11:44;20.10;99.90
7216;DHT22;3649;48.798;9.798;2022-09-09T07:14:12;20.10;99.90
7216;DHT22;3649;48.798;9.798;2022-09-09T07:16:44;20.10;99.90
7216;DHT22;3649;48.798;9.798;2022-09-09T07:19:12;20.20;99.90
7216;DHT22;3649;48.798;9.798;2022-09-09T07:21:41;20.40;99.90
7216;DHT22;3649;48.798;9.798;2022-09-09T07:24:09;20.50;99.90
7216;DHT22;3649;48.798;9.798;2022-09-09T07:26:38;20.50;99.90
7216;DHT22;3649;48.798;9.798;2022-09-09T07:29:06;20.40;99.90
7216;DHT22;3649;48.798;9.798;2022-09-09T07:31:35;20.50;99.90
7216;DHT22;3649;48.798;9.798;2022-09-09T07:34:04;20.50;99.90
7216;DHT22;3649;48.798;9.798;2022-09-09T07:36:33;20.50;99.90
7216;DHT22;3649;48.798;9.798;2022-09-09T07:39:04;20.60;99.90
7216;DHT22;3649;48.798;9.798;2022-09-09T07:41:43;20.70;99.90
7216;DHT22;3649;48.798;9.798;2022-09-09T07:44:13;20.70;99.90
7216;DHT22;3649;48.798;9.798;2022-09-09T07:46:41;21.20;99.90
7216;DHT22;3649;48.798;9.798;2022-09-09T07:49:09;20.90;99.90
7216;DHT22;3649;48.798;9.798;2022-09-09T07:51:41;21.00;99.90
7216;DHT22;3649;48.798;9.798;2022-09-09T07:54:11;21.10;99.90
7216;DHT22;3649;48.798;9.798;2022-09-09T07:56:39;21.10;99.90
7216;DHT22;3649;48.798;9.798;2022-09-09T07:59:07;21.10;99.90
7216;DHT22;3649;48.798;9.798;2022-09-09T08:01:44;21.20;99.90
7216;DHT22;3649;48.798;9.798;2022-09-09T08:04:17;21.30;99.90
7216;DHT22;3649;48.798;9.798;2022-09-09T08:06:53;21.50;99.90
7216;DHT22;3649;48.798;9.798;2022-09-09T08:09:21;21.60;99.90
7216;DHT22;3649;48.798;9.798;2022-09-09T08:11:51;21.70;99.90
7216;DHT22;3649;48.798;9.798;2022-09-09T08:14:18;21.70;99.90
7216;DHT22;3649;48.798;9.798;2022-09-09T08:16:47;21.80;99.90
7216;DHT22;3649;48.798;9.798;2022-09-09T08:19:14;21.90;99.90
7216;DHT22;3649;48.798;9.798;2022-09-09T08:21:43;22.00;99.90
7216;DHT22;3649;48.798;9.798;2022-09-09T08:24:11;22.00;99.90
7216;DHT22;3649;48.798;9.798;2022-09-09T08:26:40;22.00;99.90
7216;DHT22;3649;48.798;9.798;2022-09-09T08:29:11;22.10;99.90
7216;DHT22;3649;48.798;9.798;2022-09-09T08:31:42;22.20;99.90
7216;DHT22;3649;48.798;9.798;2022-09-09T08:34:10;22.30;99.90
7216;DHT22;3649;48.798;9.798;2022-09-09T08:36:42;22.30;99.90
7216;DHT22;3649;48.798;9.798;2022-09-09T08:39:11;22.30;99.90
7216;DHT22;3649;48.798;9.798;2022-09-09T08:50:25;22.60;99.90
7216;DHT22;3649;48.798;9.798;2022-09-09T08:55:57;22.80;99.90
7216;DHT22;3649;48.798;9.798;2022-09-09T08:58:29;22.80;99.90
7216;DHT22;3649;48.798;9.798;2022-09-09T09:03:51;22.80;99.90
7216;DHT22;3649;48.798;9.798;2022-09-09T09:09:13;22.80;99.90
7216;DHT22;3649;48.798;9.798;2022-09-09T09:11:50;22.80;99.90
7216;DHT22;3649;48.798;9.798;2022-09-09T09:17:00;22.80;99.90
7216;DHT22;3649;48.798;9.798;2022-09-09T09:19:32;22.80;99.90
7216;DHT22;3649;48.798;9.798;2022-09-09T09:22:41;22.80;99.90
7216;DHT22;3649;48.798;9.798;2022-09-09T09:25:20;22.80;99.90
7216;DHT22;3649;48.798;9.798;2022-09-09T09:28:12;22.80;99.90
7216;DHT22;3649;48.798;9.798;2022-09-09T09:33:22;22.70;99.90
7216;DHT22;3649;48.798;9.798;2022-09-09T09:35:51;22.80;99.90
7216;DHT22;3649;48.798;9.798;2022-09-09T09:38:23;22.90;99.90
7216;DHT22;3649;48.798;9.798;2022-09-09T09:41:10;22.90;99.90
7216;DHT22;3649;48.798;9.798;2022-09-09T09:43:40;22.80;99.90
7216;DHT22;3649;48.798;9.798;2022-09-09T09:46:23;22.80;99.90
7216;DHT22;3649;48.798;9.798;2022-09-09T09:49:03;22.80;99.90
7216;DHT22;3649;48.798;9.798;2022-09-09T09:51:32;22.80;99.90
7216;DHT22;3649;48.798;9.798;2022-09-09T09:56:40;22.90;99.90
7216;DHT22;3649;48.798;9.798;2022-09-09T10:02:23;22.90;99.90
7216;DHT22;3649;48.798;9.798;2022-09-09T10:05:25;23.00;99.90
7216;DHT22;3649;48.798;9.798;2022-09-09T10:08:08;23.10;99.90
7216;DHT22;3649;48.798;9.798;2022-09-09T10:13:31;23.00;99.90
7216;DHT22;3649;48.798;9.798;2022-09-09T10:26:58;23.20;99.90
7216;DHT22;3649;48.798;9.798;2022-09-09T10:32:25;23.20;99.90
7216;DHT22;3649;48.798;9.798;2022-09-09T10:35:12;23.30;99.90
7216;DHT22;3649;48.798;9.798;2022-09-09T10:37:53;23.30;99.90
7216;DHT22;3649;48.798;9.798;2022-09-09T10:40:34;23.30;99.90
7216;DHT22;3649;48.798;9.798;2022-09-09T10:43:46;23.30;99.90
7216;DHT22;3649;48.798;9.798;2022-09-09T10:52:50;23.50;99.90
7216;DHT22;3649;48.798;9.798;2022-09-09T10:55:01;23.50;99.90
7216;DHT22;3649;48.798;9.798;2022-09-09T11:00:05;23.40;99.90
7216;DHT22;3649;48.798;9.798;2022-09-09T11:02:34;23.50;99.90
7216;DHT22;3649;48.798;9.798;2022-09-09T11:05:27;23.60;99.90
7216;DHT22;3649;48.798;9.798;2022-09-09T11:10:48;23.60;99.90
7216;DHT22;3649;48.798;9.798;2022-09-09T11:15:59;23.70;99.90
7216;DHT22;3649;48.798;9.798;2022-09-09T11:18:29;23.80;99.90
7216;DHT22;3649;48.798;9.798;2022-09-09T11:21:00;23.80;99.90
7216;DHT22;3649;48.798;9.798;2022-09-09T11:23:56;23.90;99.90
7216;DHT22;3649;48.798;9.798;2022-09-09T11:26:47;23.90;99.90
7216;DHT22;3649;48.798;9.798;2022-09-09T11:30:05;24.00;99.90
7216;DHT22;3649;48.798;9.798;2022-09-09T11:33:00;24.00;99.90
7216;DHT22;3649;48.798;9.798;2022-09-09T11:38:15;24.10;99.90
7216;DHT22;3649;48.798;9.798;2022-09-09T11:40:42;24.10;99.90
7216;DHT22;3649;48.798;9.798;2022-09-09T11:43:12;24.10;99.90
7216;DHT22;3649;48.798;9.798;2022-09-09T11:45:42;24.10;99.90
7216;DHT22;3649;48.798;9.798;2022-09-09T11:48:32;24.10;99.90
7216;DHT22;3649;48.798;9.798;2022-09-09T11:51:03;24.20;99.90
7216;DHT22;3649;48.798;9.798;2022-09-09T11:53:31;24.20;99.90
7216;DHT22;3649;48.798;9.798;2022-09-09T11:58:32;24.30;99.90
7216;DHT22;3649;48.798;9.798;2022-09-09T12:01:00;24.40;99.90
7216;DHT22;3649;48.798;9.798;2022-09-09T12:03:47;24.30;99.90
7216;DHT22;3649;48.798;9.798;2022-09-09T12:06:32;24.40;99.70
7216;DHT22;3649;48.798;9.798;2022-09-09T12:09:29;24.30;99.60
7216;DHT22;3649;48.798;9.798;2022-09-09T12:12:52;24.30;99.10
7216;DHT22;3649;48.798;9.798;2022-09-09T12:17:24;24.30;98.50
7216;DHT22;3649;48.798;9.798;2022-09-09T12:20:08;24.30;98.90
7216;DHT22;3649;48.798;9.798;2022-09-09T12:22:40;24.30;98.50
7216;DHT22;3649;48.798;9.798;2022-09-09T12:30:56;23.30;99.90
7216;DHT22;3649;48.798;9.798;2022-09-09T12:33:34;23.20;99.90
7216;DHT22;3649;48.798;9.798;2022-09-09T12:36:03;23.00;99.90
7216;DHT22;3649;48.798;9.798;2022-09-09T12:38:40;22.70;99.90
7216;DHT22;3649;48.798;9.798;2022-09-09T12:41:27;22.70;99.90
7216;DHT22;3649;48.798;9.798;2022-09-09T12:44:04;22.60;99.90
7216;DHT22;3649;48.798;9.798;2022-09-09T12:46:39;22.70;99.90
7216;DHT22;3649;48.798;9.798;2022-09-09T12:49:30;22.60;99.90
7216;DHT22;3649;48.798;9.798;2022-09-09T12:52:06;22.50;99.90
7216;DHT22;3649;48.798;9.798;2022-09-09T12:54:35;22.50;99.90
7216;DHT22;3649;48.798;9.798;2022-09-09T12:57:04;22.50;99.90
7216;DHT22;3649;48.798;9.798;2022-09-09T12:59:40;22.60;99.90
7216;DHT22;3649;48.798;9.798;2022-09-09T13:02:26;22.70;99.90
7216;DHT22;3649;48.798;9.798;2022-09-09T13:04:53;22.80;99.90
7216;DHT22;3649;48.798;9.798;2022-09-09T13:07:21;22.80;99.90
7216;DHT22;3649;48.798;9.798;2022-09-09T13:09:49;22.80;99.90
7216;DHT22;3649;48.798;9.798;2022-09-09T13:12:19;22.80;99.90
7216;DHT22;3649;48.798;9.798;2022-09-09T13:14:56;22.90;99.90
7216;DHT22;3649;48.798;9.798;2022-09-09T13:17:25;22.90;99.90
7216;DHT22;3649;48.798;9.798;2022-09-09T13:19:56;23.10;99.90
7216;DHT22;3649;48.798;9.798;2022-09-09T13:22:49;23.10;99.90
7216;DHT22;3649;48.798;9.798;2022-09-09T13:25:28;23.10;99.90
7216;DHT22;3649;48.798;9.798;2022-09-09T13:28:03;23.10;99.90
7216;DHT22;3649;48.798;9.798;2022-09-09T13:30:34;23.20;99.90
7216;DHT22;3649;48.798;9.798;2022-09-09T13:35:57;23.50;99.90
7216;DHT22;3649;48.798;9.798;2022-09-09T13:38:24;23.50;99.90
7216;DHT22;3649;48.798;9.798;2022-09-09T13:41:07;23.60;99.90
7216;DHT22;3649;48.798;9.798;2022-09-09T13:43:38;23.70;99.90
7216;DHT22;3649;48.798;9.798;2022-09-09T13:46:34;23.80;99.90
7216;DHT22;3649;48.798;9.798;2022-09-09T13:51:46;23.80;99.90
7216;DHT22;3649;48.798;9.798;2022-09-09T13:54:15;23.90;99.90
7216;DHT22;3649;48.798;9.798;2022-09-09T13:56:43;24.00;99.90
7216;DHT22;3649;48.798;9.798;2022-09-09T13:59:16;24.00;99.90
7216;DHT22;3649;48.798;9.798;2022-09-09T14:01:47;24.00;99.90
7216;DHT22;3649;48.798;9.798;2022-09-09T14:04:14;24.10;99.90
7216;DHT22;3649;48.798;9.798;2022-09-09T14:06:42;24.10;99.90
7216;DHT22;3649;48.798;9.798;2022-09-09T14:09:12;24.10;99.90
7216;DHT22;3649;48.798;9.798;2022-09-09T14:11:39;24.10;99.90
7216;DHT22;3649;48.798;9.798;2022-09-09T14:14:07;24.10;99.90
7216;DHT22;3649;48.798;9.798;2022-09-09T14:16:34;24.10;99.90
7216;DHT22;3649;48.798;9.798;2022-09-09T14:19:01;24.10;99.90
7216;DHT22;3649;48.798;9.798;2022-09-09T14:21:28;24.10;99.90
7216;DHT22;3649;48.798;9.798;2022-09-09T14:23:55;24.10;99.90
7216;DHT22;3649;48.798;9.798;2022-09-09T14:26:24;24.10;99.90
7216;DHT22;3649;48.798;9.798;2022-09-09T14:28:51;24.10;99.90
7216;DHT22;3649;48.798;9.798;2022-09-09T14:31:31;24.10;99.90
7216;DHT22;3649;48.798;9.798;2022-09-09T14:33:58;24.10;99.90
7216;DHT22;3649;48.798;9.798;2022-09-09T14:36:25;24.10;99.90
7216;DHT22;3649;48.798;9.798;2022-09-09T14:38:52;24.10;99.90
7216;DHT22;3649;48.798;9.798;2022-09-09T14:41:19;24.10;99.90
7216;DHT22;3649;48.798;9.798;2022-09-09T14:43:49;24.10;99.90
7216;DHT22;3649;48.798;9.798;2022-09-09T14:46:21;24.10;99.90
7216;DHT22;3649;48.798;9.798;2022-09-09T14:48:51;24.10;99.90
7216;DHT22;3649;48.798;9.798;2022-09-09T14:51:24;24.10;99.90
7216;DHT22;3649;48.798;9.798;2022-09-09T14:53:52;24.10;99.90
7216;DHT22;3649;48.798;9.798;2022-09-09T14:56:26;24.10;99.90
7216;DHT22;3649;48.798;9.798;2022-09-09T14:58:55;24.10;99.90
7216;DHT22;3649;48.798;9.798;2022-09-09T15:01:22;24.10;99.90
7216;DHT22;3649;48.798;9.798;2022-09-09T15:06:22;24.10;98.40
7216;DHT22;3649;48.798;9.798;2022-09-09T15:08:51;24.10;98.60
7216;DHT22;3649;48.798;9.798;2022-09-09T15:11:19;24.10;98.60
7216;DHT22;3649;48.798;9.798;2022-09-09T15:13:46;24.10;98.80
7216;DHT22;3649;48.798;9.798;2022-09-09T15:16:16;24.10;98.00
7216;DHT22;3649;48.798;9.798;2022-09-09T15:18:44;24.20;98.20
7216;DHT22;3649;48.798;9.798;2022-09-09T15:21:16;24.10;98.10
7216;DHT22;3649;48.798;9.798;2022-09-09T15:23:45;24.10;97.60
7216;DHT22;3649;48.798;9.798;2022-09-09T15:26:14;24.10;97.50
7216;DHT22;3649;48.798;9.798;2022-09-09T15:28:43;24.10;97.90
7216;DHT22;3649;48.798;9.798;2022-09-09T15:31:23;24.10;97.50
7216;DHT22;3649;48.798;9.798;2022-09-09T15:33:51;24.10;97.50
7216;DHT22;3649;48.798;9.798;2022-09-09T15:36:25;24.10;97.60
7216;DHT22;3649;48.798;9.798;2022-09-09T15:38:53;24.10;97.70
7216;DHT22;3649;48.798;9.798;2022-09-09T15:41:20;24.10;97.50
7216;DHT22;3649;48.798;9.798;2022-09-09T15:43:49;24.10;97.40
7216;DHT22;3649;48.798;9.798;2022-09-09T15:48:44;24.10;97.70
7216;DHT22;3649;48.798;9.798;2022-09-09T15:51:14;24.00;98.30
7216;DHT22;3649;48.798;9.798;2022-09-09T15:54:01;24.00;98.40
7216;DHT22;3649;48.798;9.798;2022-09-09T15:56:29;23.90;98.10
7216;DHT22;3649;48.798;9.798;2022-09-09T15:58:59;23.90;97.40
7216;DHT22;3649;48.798;9.798;2022-09-09T16:01:28;24.00;97.50
7216;DHT22;3649;48.798;9.798;2022-09-09T16:03:55;24.00;97.40
7216;DHT22;3649;48.798;9.798;2022-09-09T16:06:24;24.00;97.10
7216;DHT22;3649;48.798;9.798;2022-09-09T16:08:53;24.10;97.10
7216;DHT22;3649;48.798;9.798;2022-09-09T16:11:26;24.00;96.80
7216;DHT22;3649;48.798;9.798;2022-09-09T16:13:54;24.00;96.50
7216;DHT22;3649;48.798;9.798;2022-09-09T16:16:23;24.00;96.70
7216;DHT22;3649;48.798;9.798;2022-09-09T16:18:56;23.90;96.80
7216;DHT22;3649;48.798;9.798;2022-09-09T16:21:29;23.80;96.90
7216;DHT22;3649;48.798;9.798;2022-09-09T16:23:58;23.90;96.90
7216;DHT22;3649;48.798;9.798;2022-09-09T16:26:30;23.90;96.70
7216;DHT22;3649;48.798;9.798;2022-09-09T16:28:58;23.90;96.60
7216;DHT22;3649;48.798;9.798;2022-09-09T16:31:27;23.90;96.60
7216;DHT22;3649;48.798;9.798;2022-09-09T16:33:54;23.90;96.70
7216;DHT22;3649;48.798;9.798;2022-09-09T16:36:29;23.80;96.90
7216;DHT22;3649;48.798;9.798;2022-09-09T16:38:59;23.80;96.90
7216;DHT22;3649;48.798;9.798;2022-09-09T16:41:28;23.80;96.90
7216;DHT22;3649;48.798;9.798;2022-09-09T16:43:57;23.80;97.00
7216;DHT22;3649;48.798;9.798;2022-09-09T16:46:25;23.70;97.10
7216;DHT22;3649;48.798;9.798;2022-09-09T16:48:56;23.70;97.50
7216;DHT22;3649;48.798;9.798;2022-09-09T16:51:33;23.70;97.60
7216;DHT22;3649;48.798;9.798;2022-09-09T16:54:02;23.70;97.70
7216;DHT22;3649;48.798;9.798;2022-09-09T16:56:31;23.60;97.80
7216;DHT22;3649;48.798;9.798;2022-09-09T16:59:02;23.60;98.10
7216;DHT22;3649;48.798;9.798;2022-09-09T17:01:31;23.60;98.30
7216;DHT22;3649;48.798;9.798;2022-09-09T17:04:01;23.60;98.60
7216;DHT22;3649;48.798;9.798;2022-09-09T17:06:29;23.50;98.90
7216;DHT22;3649;48.798;9.798;2022-09-09T17:08:58;23.50;99.00
7216;DHT22;3649;48.798;9.798;2022-09-09T17:11:26;23.60;99.10
7216;DHT22;3649;48.798;9.798;2022-09-09T17:13:53;23.60;98.80
7216;DHT22;3649;48.798;9.798;2022-09-09T17:16:22;23.60;98.90
7216;DHT22;3649;48.798;9.798;2022-09-09T17:18:51;23.50;98.80
7216;DHT22;3649;48.798;9.798;2022-09-09T17:21:20;23.50;98.80
7216;DHT22;3649;48.798;9.798;2022-09-09T17:23:48;23.40;98.70
7216;DHT22;3649;48.798;9.798;2022-09-09T17:26:17;23.40;98.70
7216;DHT22;3649;48.798;9.798;2022-09-09T17:28:44;23.40;98.40
7216;DHT22;3649;48.798;9.798;2022-09-09T17:31:14;23.40;98.20
7216;DHT22;3649;48.798;9.798;2022-09-09T17:33:44;23.30;98.10
7216;DHT22;3649;48.798;9.798;2022-09-09T17:38:41;23.20;98.40
7216;DHT22;3649;48.798;9.798;2022-09-09T17:41:17;23.20;98.60
7216;DHT22;3649;48.798;9.798;2022-09-09T17:43:45;23.10;98.70
7216;DHT22;3649;48.798;9.798;2022-09-09T17:46:18;23.00;98.80
7216;DHT22;3649;48.798;9.798;2022-09-09T17:48:50;23.00;98.80
7216;DHT22;3649;48.798;9.798;2022-09-09T17:51:20;22.90;98.80
7216;DHT22;3649;48.798;9.798;2022-09-09T17:53:51;22.80;98.90
7216;DHT22;3649;48.798;9.798;2022-09-09T17:56:20;22.80;99.00
7216;DHT22;3649;48.798;9.798;2022-09-09T17:58:48;22.70;99.00
7216;DHT22;3649;48.798;9.798;2022-09-09T18:01:20;22.70;99.10
7216;DHT22;3649;48.798;9.798;2022-09-09T18:03:49;22.60;99.00
7216;DHT22;3649;48.798;9.798;2022-09-09T18:06:18;22.60;99.10
7216;DHT22;3649;48.798;9.798;2022-09-09T18:08:51;22.50;99.10
7216;DHT22;3649;48.798;9.798;2022-09-09T18:11:20;22.50;99.20
7216;DHT22;3649;48.798;9.798;2022-09-09T18:13:49;22.50;99.10
7216;DHT22;3649;48.798;9.798;2022-09-09T18:16:16;22.50;98.90
7216;DHT22;3649;48.798;9.798;2022-09-09T18:18:45;22.50;98.90
7216;DHT22;3649;48.798;9.798;2022-09-09T18:21:12;22.40;98.80
7216;DHT22;3649;48.798;9.798;2022-09-09T18:23:41;22.40;98.80
7216;DHT22;3649;48.798;9.798;2022-09-09T18:26:23;22.40;98.70
7216;DHT22;3649;48.798;9.798;2022-09-09T18:28:53;22.40;98.70
7216;DHT22;3649;48.798;9.798;2022-09-09T18:31:22;22.40;98.80
7216;DHT22;3649;48.798;9.798;2022-09-09T18:33:50;22.30;98.90
7216;DHT22;3649;48.798;9.798;2022-09-09T18:36:24;22.30;99.00
7216;DHT22;3649;48.798;9.798;2022-09-09T18:38:52;22.20;99.10